createdAt,value
2022-12-17T00:02:31.949Z,97188.03
2022-12-17T00:05:17.933Z,97178.88
2022-12-17T00:08:03.426Z,97188.66
2022-12-17T00:10:48.962Z,97189.66
2022-12-17T00:13:39.010Z,97198.22
2022-12-17T00:16:25.717Z,97202.75
2022-12-17T00:19:12.439Z,97202.03
2022-12-17T00:21:58.270Z,97197.72
2022-12-17T00:24:44.226Z,97207.75
2022-12-17T00:27:29.744Z,97217.09
2022-12-17T00:30:15.248Z,97209.03
2022-12-17T00:33:00.587Z,97217.91
2022-12-17T00:35:47.540Z,97212.94
2022-12-17T00:38:34.210Z,97214.69
2022-12-17T00:41:20.160Z,97214.97
2022-12-17T00:44:05.983Z,97218.53
2022-12-17T00:46:51.563Z,97224.81
2022-12-17T00:49:37.669Z,97242.84
2022-12-17T00:52:24.713Z,97236.66
2022-12-17T00:55:10.163Z,97236.41
2022-12-17T00:58:07.281Z,97240.50
2022-12-17T01:00:53.206Z,97244.22
2022-12-17T01:03:42.152Z,97241.56
2022-12-17T01:06:28.278Z,97240.75
2022-12-17T01:09:11.968Z,97244.63
2022-12-17T01:11:57.712Z,97247.34
2022-12-17T01:14:43.858Z,97258.69
2022-12-17T01:17:30.379Z,97253.34
2022-12-17T01:20:16.400Z,97252.69
2022-12-17T01:23:03.664Z,97258.50
2022-12-17T01:25:50.592Z,97256.94
2022-12-17T01:28:40.053Z,97259.72
2022-12-17T01:31:29.156Z,97266.19
2022-12-17T01:34:18.781Z,97267.88
2022-12-17T01:37:06.282Z,97285.97
2022-12-17T01:39:51.647Z,97268.19
2022-12-17T01:42:38.594Z,97278.72
2022-12-17T01:45:29.175Z,97281.63
2022-12-17T01:48:20.295Z,97289.78
2022-12-17T01:51:09.305Z,97282.66
2022-12-17T01:53:59.008Z,97282.69
2022-12-17T01:56:45.259Z,97293.34
2022-12-17T01:59:47.952Z,97293.84
2022-12-17T02:02:33.757Z,97294.06
2022-12-17T02:05:20.315Z,97304.34
2022-12-17T02:08:19.556Z,97301.66
2022-12-17T02:11:12.322Z,97311.34
2022-12-17T02:14:01.292Z,97305.34
2022-12-17T02:17:08.369Z,97309.59
2022-12-17T02:20:05.773Z,97301.38
2022-12-17T02:23:09.653Z,97307.91
2022-12-17T02:26:01.089Z,97317.16
2022-12-17T02:28:48.935Z,97317.88
2022-12-17T02:31:35.737Z,97312.59
2022-12-17T02:34:21.762Z,97303.25
2022-12-17T02:37:08.940Z,97320.63
2022-12-17T02:39:56.798Z,97319.38
2022-12-17T02:42:45.149Z,97313.38
2022-12-17T02:45:33.898Z,97321.53
2022-12-17T02:48:20.310Z,97327.81
2022-12-17T02:51:07.192Z,97321.91
2022-12-17T02:53:53.546Z,97326.66
2022-12-17T02:56:41.817Z,97333.94
2022-12-17T02:59:32.723Z,97338.72
2022-12-17T03:02:27.657Z,97337.56
2022-12-17T03:05:42.979Z,97339.47
2022-12-17T03:08:30.084Z,97339.81
2022-12-17T03:11:17.979Z,97337.66
2022-12-17T03:14:04.189Z,97344.03
2022-12-17T03:16:50.045Z,97346.59
2022-12-17T03:19:36.864Z,97349.53
2022-12-17T03:22:22.519Z,97349.75
2022-12-17T03:25:07.881Z,97346.44
2022-12-17T03:27:53.600Z,97346.50
2022-12-17T03:30:39.321Z,97346.25
2022-12-17T03:33:26.659Z,97347.09
2022-12-17T03:36:14.016Z,97347.25
2022-12-17T03:39:00.973Z,97343.16
2022-12-17T03:41:46.480Z,97347.56
2022-12-17T03:44:32.191Z,97347.84
2022-12-17T03:47:32.420Z,97353.66
2022-12-17T03:50:18.143Z,97350.34
2022-12-17T03:53:05.288Z,97355.38
2022-12-17T03:55:50.603Z,97363.00
2022-12-17T03:58:36.360Z,97365.47
2022-12-17T04:01:22.145Z,97370.09
2022-12-17T04:04:07.775Z,97371.31
2022-12-17T04:06:53.579Z,97372.13
2022-12-17T04:09:40.890Z,97372.41
2022-12-17T04:12:26.565Z,97379.75
2022-12-17T04:15:12.236Z,97384.38
2022-12-17T04:17:57.617Z,97388.59
2022-12-17T04:20:43.494Z,97389.38
2022-12-17T04:23:29.144Z,97387.53
2022-12-17T04:26:15.855Z,97386.81
2022-12-17T04:29:01.375Z,97387.94
2022-12-17T04:31:47.292Z,97392.19
2022-12-17T04:34:32.952Z,97389.56
2022-12-17T04:37:18.479Z,97399.28
2022-12-17T04:40:04.392Z,97394.53
2022-12-17T04:42:51.568Z,97405.34
2022-12-17T04:45:36.930Z,97398.09
2022-12-17T04:48:23.265Z,97408.53
2022-12-17T04:51:08.987Z,97406.31
2022-12-17T04:53:54.748Z,97413.13
2022-12-17T04:56:41.163Z,97422.47
2022-12-17T04:59:28.018Z,97421.25
2022-12-17T05:02:13.636Z,97427.84
2022-12-17T05:04:59.311Z,97428.09
2022-12-17T05:07:44.533Z,97428.09
2022-12-17T05:10:29.910Z,97440.34
2022-12-17T05:13:17.177Z,97439.78
2022-12-17T05:16:04.819Z,97439.41
2022-12-17T05:18:50.806Z,97441.63
2022-12-17T05:21:41.910Z,97443.31
2022-12-17T05:24:27.509Z,97440.94
2022-12-17T05:27:13.024Z,97442.22
2022-12-17T05:29:58.822Z,97450.09
2022-12-17T05:32:45.576Z,97444.69
2022-12-17T05:35:31.050Z,97461.03
2022-12-17T05:38:22.181Z,97458.38
2022-12-17T05:41:07.562Z,97472.03
2022-12-17T05:43:52.138Z,97473.59
2022-12-17T05:46:37.834Z,97468.66
2022-12-17T05:49:24.956Z,97473.50
2022-12-17T05:52:10.367Z,97482.28
2022-12-17T05:54:55.840Z,97479.63
2022-12-17T05:57:40.672Z,97483.22
2022-12-17T06:00:27.381Z,97484.69
2022-12-17T06:03:17.425Z,97493.94
2022-12-17T06:06:04.160Z,97497.34
2022-12-17T06:08:49.583Z,97506.38
2022-12-17T06:11:35.310Z,97514.16
2022-12-17T06:14:20.862Z,97525.00
2022-12-17T06:17:06.349Z,97517.53
2022-12-17T06:19:52.237Z,97520.28
2022-12-17T06:22:39.408Z,97521.06
2022-12-17T06:25:25.644Z,97523.94
2022-12-17T06:28:17.456Z,97515.03
2022-12-17T06:31:09.454Z,97522.50
2022-12-17T06:33:56.360Z,97522.44
2022-12-17T06:36:42.109Z,97516.97
2022-12-17T06:39:28.832Z,97530.13
2022-12-17T06:42:14.109Z,97528.31
2022-12-17T06:44:59.910Z,97535.19
2022-12-17T06:47:45.375Z,97532.66
2022-12-17T06:50:42.259Z,97544.31
2022-12-17T06:53:29.148Z,97552.97
2022-12-17T06:56:17.870Z,97555.88
2022-12-17T06:59:03.652Z,97557.03
2022-12-17T07:01:49.399Z,97550.88
2022-12-17T07:04:35.086Z,97559.00
2022-12-17T07:07:20.894Z,97569.81
2022-12-17T07:10:12.295Z,97567.06
2022-12-17T07:13:01.239Z,97571.03
2022-12-17T07:15:46.876Z,97581.56
2022-12-17T07:18:32.617Z,97588.44
2022-12-17T07:21:18.291Z,97587.75
2022-12-17T07:24:04.199Z,97596.13
2022-12-17T07:26:51.282Z,97597.50
2022-12-17T07:29:38.303Z,97591.00
2022-12-17T07:32:24.342Z,97601.47
2022-12-17T07:35:10.146Z,97600.44
2022-12-17T07:37:55.560Z,97613.59
2022-12-17T07:40:41.257Z,97619.66
2022-12-17T07:43:30.044Z,97614.09
2022-12-17T07:46:17.149Z,97621.53
2022-12-17T07:49:02.928Z,97626.13
2022-12-17T07:51:49.034Z,97630.94
2022-12-17T07:54:34.300Z,97623.00
2022-12-17T07:57:19.858Z,97629.94
2022-12-17T08:00:05.345Z,97645.88
2022-12-17T08:02:52.650Z,97634.19
2022-12-17T08:05:38.063Z,97640.94
2022-12-17T08:08:27.589Z,97643.28
2022-12-17T08:11:13.233Z,97639.44
2022-12-17T08:13:59.224Z,97647.59
2022-12-17T08:16:44.893Z,97645.59
2022-12-17T08:19:32.455Z,97653.81
2022-12-17T08:22:17.890Z,97654.22
2022-12-17T08:25:03.518Z,97647.94
2022-12-17T08:27:49.330Z,97654.16
2022-12-17T08:30:35.014Z,97661.00
2022-12-17T08:33:21.422Z,97669.28
2022-12-17T08:36:12.021Z,97672.44
2022-12-17T08:38:57.849Z,97674.56
2022-12-17T08:41:43.873Z,97676.81
2022-12-17T08:44:29.485Z,97682.09
2022-12-17T08:47:15.463Z,97679.63
2022-12-17T08:50:01.221Z,97686.00
2022-12-17T08:52:47.510Z,97690.88
2022-12-17T08:55:33.261Z,97690.53
2022-12-17T08:58:19.245Z,97700.94
2022-12-17T09:01:04.568Z,97700.63
2022-12-17T09:03:50.023Z,97697.69
2022-12-17T09:06:39.132Z,97700.75
2022-12-17T09:09:26.422Z,97709.69
2022-12-17T09:12:11.825Z,97712.09
2022-12-17T09:14:57.612Z,97707.28
2022-12-17T09:17:43.517Z,97710.53
2022-12-17T09:20:29.737Z,97709.63
2022-12-17T09:23:15.701Z,97710.50
2022-12-17T09:26:02.767Z,97712.28
2022-12-17T09:28:48.543Z,97713.03
2022-12-17T09:31:37.429Z,97713.69
2022-12-17T09:34:23.123Z,97711.63
2022-12-17T09:37:08.682Z,97718.94
2022-12-17T09:39:54.490Z,97720.38
2022-12-17T09:42:51.803Z,97723.09
2022-12-17T09:45:45.727Z,97728.47
2022-12-17T09:48:37.910Z,97729.97
2022-12-17T09:51:24.124Z,97731.34
2022-12-17T09:54:11.794Z,97730.88
2022-12-17T09:57:01.109Z,97738.47
2022-12-17T09:59:52.261Z,97728.50
2022-12-17T10:02:41.471Z,97735.06
2022-12-17T10:05:33.844Z,97740.81
2022-12-17T10:08:22.719Z,97734.41
2022-12-17T10:11:08.403Z,97737.59
2022-12-17T10:13:54.320Z,97748.25
2022-12-17T10:16:44.891Z,97741.19
2022-12-17T10:19:34.273Z,97744.56
2022-12-17T10:22:31.572Z,97742.81
2022-12-17T10:25:35.931Z,97745.31
2022-12-17T10:28:24.819Z,97751.78
2022-12-17T10:31:10.839Z,97747.00
2022-12-17T10:33:59.350Z,97752.06
2022-12-17T10:37:01.596Z,97752.03
2022-12-17T10:39:55.793Z,97762.41
2022-12-17T10:42:43.619Z,97757.59
2022-12-17T10:45:47.889Z,97763.03
2022-12-17T10:48:42.438Z,97762.69
2022-12-17T10:51:49.549Z,97768.00
2022-12-17T10:54:47.029Z,97772.88
2022-12-17T10:57:43.404Z,97775.53
2022-12-17T11:00:49.484Z,97783.22
2022-12-17T11:03:58.640Z,97785.75
2022-12-17T11:06:48.179Z,97789.13
2022-12-17T11:09:45.856Z,97786.38
2022-12-17T11:12:34.892Z,97796.63
2022-12-17T11:15:27.915Z,97799.22
2022-12-17T11:18:14.726Z,97800.47
2022-12-17T11:21:07.329Z,97795.38
2022-12-17T11:23:56.338Z,97796.22
2022-12-17T11:26:45.936Z,97803.25
2022-12-17T11:29:32.735Z,97804.25
2022-12-17T11:32:37.422Z,97808.75
2022-12-17T11:35:28.596Z,97814.44
2022-12-17T11:38:22.724Z,97806.66
2022-12-17T11:41:15.609Z,97817.34
2022-12-17T11:44:13.090Z,97814.78
2022-12-17T11:47:04.998Z,97819.56
2022-12-17T11:50:01.718Z,97827.22
2022-12-17T11:52:54.652Z,97825.22
2022-12-17T11:55:48.852Z,97827.97
2022-12-17T11:58:41.654Z,97830.09
2022-12-17T12:01:38.322Z,97827.78
2022-12-17T12:04:38.976Z,97828.94
2022-12-17T12:07:32.673Z,97839.22
2022-12-17T12:10:23.069Z,97837.78
2022-12-17T12:13:20.668Z,97826.94
2022-12-17T12:16:14.893Z,97830.41
2022-12-17T12:19:24.791Z,97824.69
2022-12-17T12:22:19.426Z,97830.28
2022-12-17T12:25:18.147Z,97837.28
2022-12-17T12:28:13.860Z,97839.00
2022-12-17T12:31:09.469Z,97838.81
2022-12-17T12:34:15.892Z,97846.06
2022-12-17T12:37:05.020Z,97835.84
2022-12-17T12:39:56.913Z,97845.19
2022-12-17T12:42:49.892Z,97854.22
2022-12-17T12:45:52.493Z,97852.34
2022-12-17T12:48:51.065Z,97842.50
2022-12-17T12:51:41.153Z,97847.84
2022-12-17T12:54:45.145Z,97839.72
2022-12-17T12:57:45.272Z,97846.03
2022-12-17T13:00:47.705Z,97852.13
2022-12-17T13:03:40.153Z,97856.63
2022-12-17T13:06:08.997Z,97850.31
2022-12-17T13:08:39.107Z,97859.63
2022-12-17T13:11:28.022Z,97863.31
2022-12-17T13:14:02.434Z,97867.50
2022-12-17T13:16:50.283Z,97863.69
2022-12-17T13:19:21.732Z,97856.06
2022-12-17T13:21:49.947Z,97875.59
2022-12-17T13:24:26.649Z,97866.50
2022-12-17T13:26:56.090Z,97876.28
2022-12-17T13:29:29.189Z,97884.03
2022-12-17T13:32:07.184Z,97879.66
2022-12-17T13:34:47.203Z,97883.28
2022-12-17T13:37:27.489Z,97878.19
2022-12-17T13:40:06.155Z,97884.28
2022-12-17T13:42:37.366Z,97889.59
2022-12-17T13:45:07.056Z,97896.84
2022-12-17T13:47:38.366Z,97900.44
2022-12-17T13:50:36.938Z,97907.41
2022-12-17T13:53:16.632Z,97916.00
2022-12-17T13:55:51.517Z,97918.22
2022-12-17T13:58:29.518Z,97924.28
2022-12-17T14:01:09.990Z,97933.97
2022-12-17T14:06:31.029Z,97927.59
2022-12-17T14:08:59.903Z,97922.81
2022-12-17T14:11:46.290Z,97924.38
2022-12-17T14:14:23.169Z,97930.72
2022-12-17T14:16:51.582Z,97934.88
2022-12-17T14:19:19.801Z,97933.19
2022-12-17T14:21:48.511Z,97934.63
2022-12-17T14:24:29.427Z,97939.63
2022-12-17T14:26:59.869Z,97945.50
2022-12-17T14:29:30.839Z,97943.25
2022-12-17T14:32:00.917Z,97944.53
2022-12-17T14:34:30.034Z,97940.22
2022-12-17T14:37:00.251Z,97948.16
2022-12-17T14:39:31.097Z,97955.19
2022-12-17T14:42:25.480Z,97958.47
2022-12-17T14:44:57.587Z,97958.06
2022-12-17T14:47:28.383Z,97963.34
2022-12-17T14:50:02.724Z,97974.41
2022-12-17T14:52:43.790Z,97979.34
2022-12-17T14:55:34.664Z,97973.97
2022-12-17T14:58:25.388Z,97989.72
2022-12-17T15:00:59.013Z,97989.34
2022-12-17T15:03:29.129Z,98004.25
2022-12-17T15:06:00.169Z,97999.22
2022-12-17T15:08:32.925Z,98003.06
2022-12-17T15:11:01.227Z,98002.66
2022-12-17T15:13:29.213Z,98005.38
2022-12-17T15:15:59.088Z,98010.78
2022-12-17T15:18:27.147Z,98009.19
2022-12-17T15:20:56.244Z,98011.94
2022-12-17T15:23:25.219Z,98009.25
2022-12-17T15:25:55.125Z,98024.75
2022-12-17T15:28:24.134Z,98025.63
2022-12-17T15:30:52.388Z,98024.69
2022-12-17T15:33:22.610Z,98023.19
2022-12-17T15:35:50.707Z,98028.19
2022-12-17T15:38:18.684Z,98017.81
2022-12-17T15:40:46.716Z,98021.28
2022-12-17T15:43:14.657Z,98017.81
2022-12-17T15:45:45.046Z,98029.00
2022-12-17T15:48:15.701Z,98028.19
2022-12-17T15:50:45.298Z,98022.00
2022-12-17T15:53:13.396Z,98042.25
2022-12-17T15:55:41.528Z,98035.22
2022-12-17T15:58:11.405Z,98040.38
2022-12-17T16:00:39.603Z,98045.50
2022-12-17T16:03:07.937Z,98046.97
2022-12-17T16:05:36.091Z,98058.41
2022-12-17T16:08:05.857Z,98057.41
2022-12-17T16:10:33.793Z,98056.31
2022-12-17T16:13:01.848Z,98051.25
2022-12-17T16:15:30.305Z,98058.91
2022-12-17T16:17:58.486Z,98057.09
2022-12-17T16:20:27.001Z,98058.59
2022-12-17T16:22:55.070Z,98061.63
2022-12-17T16:25:24.398Z,98054.50
2022-12-17T16:27:52.507Z,98057.69
2022-12-17T16:30:21.070Z,98057.22
2022-12-17T16:32:49.350Z,98065.00
2022-12-17T16:35:17.540Z,98065.28
2022-12-17T16:37:45.733Z,98064.00
2022-12-17T16:40:14.028Z,98065.59
2022-12-17T16:42:43.734Z,98070.31
2022-12-17T16:45:12.367Z,98068.88
2022-12-17T16:47:40.375Z,98078.81
2022-12-17T16:50:08.783Z,98082.53
2022-12-17T16:52:37.078Z,98087.47
2022-12-17T16:55:06.486Z,98081.63
2022-12-17T16:57:34.729Z,98082.28
2022-12-17T17:00:04.998Z,98089.97
2022-12-17T17:02:33.555Z,98086.19
2022-12-17T17:05:01.754Z,98097.59
2022-12-17T17:07:29.862Z,98091.72
2022-12-17T17:09:58.176Z,98094.91
2022-12-17T17:12:27.198Z,98093.59
2022-12-17T17:14:55.183Z,98102.53
2022-12-17T17:17:54.256Z,98099.47
2022-12-17T17:20:13.673Z,98106.22
2022-12-17T17:22:41.867Z,98098.56
2022-12-17T17:25:10.030Z,98109.94
2022-12-17T17:27:38.439Z,98101.03
2022-12-17T17:30:07.758Z,98108.06
2022-12-17T17:32:37.370Z,98115.34
2022-12-17T17:35:06.168Z,98126.72
2022-12-17T17:37:34.134Z,98130.22
2022-12-17T17:40:02.127Z,98133.34
2022-12-17T17:42:30.280Z,98134.63
2022-12-17T17:44:58.785Z,98128.44
2022-12-17T17:47:26.787Z,98133.34
2022-12-17T17:49:56.265Z,98134.34
2022-12-17T17:52:24.319Z,98137.69
2022-12-17T17:54:53.032Z,98138.59
2022-12-17T17:57:21.305Z,98129.25
2022-12-17T17:59:49.341Z,98135.81
2022-12-17T18:02:17.491Z,98141.81
2022-12-17T18:04:45.587Z,98137.47
2022-12-17T18:07:30.302Z,98136.00
2022-12-17T18:09:59.812Z,98141.59
2022-12-17T18:12:45.543Z,98147.81
2022-12-17T18:15:16.392Z,98140.63
2022-12-17T18:17:47.716Z,98144.81
2022-12-17T18:20:16.556Z,98151.34
2022-12-17T18:22:47.258Z,98154.16
2022-12-17T18:25:16.235Z,98153.44
2022-12-17T18:27:44.700Z,98153.16
2022-12-17T18:30:13.698Z,98162.41
2022-12-17T18:32:42.967Z,98173.13
2022-12-17T18:35:11.387Z,98177.50
2022-12-17T18:37:39.484Z,98168.00
2022-12-17T18:40:10.280Z,98163.13
2022-12-17T18:42:55.865Z,98163.38
2022-12-17T18:45:24.107Z,98170.44
2022-12-17T18:47:52.517Z,98175.03
2022-12-17T18:50:20.690Z,98181.31
2022-12-17T18:52:48.643Z,98180.66
2022-12-17T18:55:18.183Z,98185.09
2022-12-17T18:57:46.377Z,98189.81
2022-12-17T19:00:16.266Z,98186.13
2022-12-17T19:02:44.705Z,98199.13
2022-12-17T19:05:12.916Z,98198.66
2022-12-17T19:07:41.048Z,98210.22
2022-12-17T19:10:10.067Z,98212.06
2022-12-17T19:12:39.487Z,98210.66
2022-12-17T19:15:08.835Z,98217.13
2022-12-17T19:17:36.911Z,98211.00
2022-12-17T19:20:05.473Z,98211.13
2022-12-17T19:22:33.658Z,98209.28
2022-12-17T19:25:03.205Z,98212.31
2022-12-17T19:27:31.192Z,98215.22
2022-12-17T19:30:01.061Z,98224.84
2022-12-17T19:32:29.182Z,98226.06
2022-12-17T19:34:57.323Z,98231.69
2022-12-17T19:37:25.640Z,98236.28
2022-12-17T19:39:53.686Z,98238.25
2022-12-17T19:42:35.219Z,98242.75
2022-12-17T19:45:07.772Z,98241.88
2022-12-17T19:47:35.984Z,98247.63
2022-12-17T19:50:04.491Z,98253.84
2022-12-17T19:52:32.783Z,98254.94
2022-12-17T19:55:02.101Z,98254.22
2022-12-17T19:57:31.762Z,98239.34
2022-12-17T20:00:00.182Z,98251.28
2022-12-17T20:02:32.822Z,98254.03
2022-12-17T20:05:01.713Z,98258.66
2022-12-17T20:07:29.790Z,98259.25
2022-12-17T20:09:57.809Z,98256.75
2022-12-17T20:12:25.987Z,98259.75
2022-12-17T20:14:54.437Z,98257.59
2022-12-17T20:17:22.484Z,98262.97
2022-12-17T20:19:53.398Z,98264.78
2022-12-17T20:22:23.243Z,98263.44
2022-12-17T20:24:53.153Z,98263.97
2022-12-17T20:27:21.430Z,98259.97
2022-12-17T20:29:49.443Z,98271.56
2022-12-17T20:32:19.482Z,98271.69
2022-12-17T20:34:47.648Z,98277.44
2022-12-17T20:37:17.577Z,98277.38
2022-12-17T20:39:45.846Z,98272.56
2022-12-17T20:42:14.084Z,98280.00
2022-12-17T20:44:42.974Z,98271.75
2022-12-17T20:47:10.976Z,98277.59
2022-12-17T20:49:39.437Z,98284.69
2022-12-17T20:52:07.537Z,98284.16
2022-12-17T20:54:36.950Z,98287.06
2022-12-17T20:57:05.133Z,98291.91
2022-12-17T20:59:33.159Z,98286.28
2022-12-17T21:02:01.283Z,98296.53
2022-12-17T21:04:29.588Z,98291.72
2022-12-17T21:06:57.800Z,98289.31
2022-12-17T21:09:25.785Z,98287.34
2022-12-17T21:11:55.207Z,98292.97
2022-12-17T21:14:23.257Z,98288.63
2022-12-17T21:16:51.590Z,98299.13
2022-12-17T21:19:20.417Z,98294.19
2022-12-17T21:21:48.945Z,98295.91
2022-12-17T21:24:17.939Z,98302.69
2022-12-17T21:26:47.752Z,98299.41
2022-12-17T21:29:18.428Z,98306.28
2022-12-17T21:31:49.391Z,98308.50
2022-12-17T21:34:21.525Z,98314.38
2022-12-17T21:36:50.069Z,98312.25
2022-12-17T21:39:19.408Z,98309.94
2022-12-17T21:42:08.036Z,98310.75
2022-12-17T21:44:38.966Z,98313.66
2022-12-17T21:47:07.390Z,98315.94
2022-12-17T21:49:35.642Z,98317.66
2022-12-17T21:52:03.806Z,98316.13
2022-12-17T21:54:32.122Z,98324.66
2022-12-17T21:57:00.595Z,98320.19
2022-12-17T21:59:28.752Z,98315.22
2022-12-17T22:01:58.381Z,98322.41
2022-12-17T22:04:26.915Z,98328.81
2022-12-17T22:06:58.516Z,98325.00
2022-12-17T22:09:49.086Z,98324.00
2022-12-17T22:12:39.363Z,98324.09
2022-12-17T22:15:10.994Z,98324.06
2022-12-17T22:17:41.785Z,98330.69
2022-12-17T22:20:11.716Z,98337.97
2022-12-17T22:22:39.767Z,98329.28
2022-12-17T22:25:11.409Z,98335.84
2022-12-17T22:27:41.154Z,98341.50
2022-12-17T22:30:31.724Z,98345.81
2022-12-17T22:33:13.408Z,98353.75
2022-12-17T22:37:41.558Z,98357.81
2022-12-17T22:42:19.625Z,98365.34
2022-12-17T22:44:38.093Z,98370.28
2022-12-17T22:44:51.419Z,98360.63
2022-12-17T22:47:21.070Z,98372.31
2022-12-17T22:49:50.516Z,98382.59
2022-12-17T22:52:19.835Z,98382.19
2022-12-17T22:54:48.824Z,98389.81
2022-12-17T22:57:35.868Z,98380.97
2022-12-17T23:00:10.367Z,98383.81
2022-12-17T23:02:38.550Z,98378.84
2022-12-17T23:05:09.592Z,98389.84
2022-12-17T23:07:37.666Z,98382.44
2022-12-17T23:10:06.818Z,98384.13
2022-12-17T23:12:54.031Z,98379.56
2022-12-17T23:15:29.499Z,98381.53
2022-12-17T23:18:00.106Z,98379.84
2022-12-17T23:20:32.085Z,98377.38
2022-12-17T23:23:00.547Z,98377.91
2022-12-17T23:25:30.085Z,98374.34
2022-12-17T23:27:58.259Z,98371.69
2022-12-17T23:30:26.774Z,98376.38
2022-12-17T23:32:54.805Z,98373.69
2022-12-17T23:35:22.826Z,98383.31
2022-12-17T23:37:52.332Z,98399.09
2022-12-17T23:40:20.529Z,98402.00
2022-12-17T23:42:48.748Z,98401.66
2022-12-17T23:45:16.743Z,98409.81
2022-12-17T23:47:45.064Z,98397.28
2022-12-17T23:50:13.115Z,98392.41
2022-12-17T23:52:41.625Z,98389.41
2022-12-17T23:55:12.495Z,98393.66
2022-12-17T23:57:40.541Z,98407.28
